sensor_id;sensor_type;location;lat;lon;timestamp;pressure;altitude;pressure_sealevel;temperature
81177;BMP280;74095;48.270;14.200;2023-12-07T00:01:38;98143.78;;;4.10
81177;BMP280;74095;48.270;14.200;2023-12-07T00:04:04;98136.66;;;4.11
81177;BMP280;74095;48.270;14.200;2023-12-07T00:06:29;98125.78;;;4.07
81177;BMP280;74095;48.270;14.200;2023-12-07T00:08:55;98129.22;;;4.08
81177;BMP280;74095;48.270;14.200;2023-12-07T00:11:22;98138.97;;;4.07
81177;BMP280;74095;48.270;14.200;2023-12-07T00:13:51;98131.28;;;4.06
81177;BMP280;74095;48.270;14.200;2023-12-07T00:16:17;98136.34;;;4.07
81177;BMP280;74095;48.270;14.200;2023-12-07T00:18:43;98121.13;;;3.98
81177;BMP280;74095;48.270;14.200;2023-12-07T00:21:08;98135.19;;;4.03
81177;BMP280;74095;48.270;14.200;2023-12-07T00:23:35;98132.47;;;3.98
81177;BMP280;74095;48.270;14.200;2023-12-07T00:26:03;98138.56;;;3.99
81177;BMP280;74095;48.270;14.200;2023-12-07T00:28:29;98139.88;;;3.96
81177;BMP280;74095;48.270;14.200;2023-12-07T00:30:56;98142.91;;;3.88
81177;BMP280;74095;48.270;14.200;2023-12-07T00:33:22;98145.47;;;3.83
81177;BMP280;74095;48.270;14.200;2023-12-07T00:35:48;98148.69;;;3.85
81177;BMP280;74095;48.270;14.200;2023-12-07T00:38:14;98146.06;;;3.85
81177;BMP280;74095;48.270;14.200;2023-12-07T00:40:40;98135.06;;;3.76
81177;BMP280;74095;48.270;14.200;2023-12-07T00:43:06;98152.81;;;3.81
81177;BMP280;74095;48.270;14.200;2023-12-07T00:45:33;98144.38;;;3.79
81177;BMP280;74095;48.270;14.200;2023-12-07T00:47:59;98149.66;;;3.79
81177;BMP280;74095;48.270;14.200;2023-12-07T00:50:25;98147.22;;;3.77
81177;BMP280;74095;48.270;14.200;2023-12-07T00:52:51;98151.13;;;3.75
81177;BMP280;74095;48.270;14.200;2023-12-07T00:55:17;98148.50;;;3.75
81177;BMP280;74095;48.270;14.200;2023-12-07T00:57:42;98159.47;;;3.83
81177;BMP280;74095;48.270;14.200;2023-12-07T01:00:09;98164.03;;;3.88
81177;BMP280;74095;48.270;14.200;2023-12-07T01:02:36;98152.81;;;3.81
81177;BMP280;74095;48.270;14.200;2023-12-07T01:05:02;98149.56;;;3.74
81177;BMP280;74095;48.270;14.200;2023-12-07T01:07:28;98143.66;;;3.67
81177;BMP280;74095;48.270;14.200;2023-12-07T01:09:54;98150.44;;;3.63
81177;BMP280;74095;48.270;14.200;2023-12-07T01:12:19;98148.19;;;3.55
81177;BMP280;74095;48.270;14.200;2023-12-07T01:14:45;98146.44;;;3.60
81177;BMP280;74095;48.270;14.200;2023-12-07T01:17:11;98151.16;;;3.58
81177;BMP280;74095;48.270;14.200;2023-12-07T01:19:37;98141.31;;;3.54
81177;BMP280;74095;48.270;14.200;2023-12-07T01:22:03;98163.31;;;3.59
81177;BMP280;74095;48.270;14.200;2023-12-07T01:24:29;98145.78;;;3.53
81177;BMP280;74095;48.270;14.200;2023-12-07T01:26:55;98156.69;;;3.57
81177;BMP280;74095;48.270;14.200;2023-12-07T01:29:21;98161.94;;;3.57
81177;BMP280;74095;48.270;14.200;2023-12-07T01:31:47;98143.78;;;3.43
81177;BMP280;74095;48.270;14.200;2023-12-07T01:34:13;98159.22;;;3.52
81177;BMP280;74095;48.270;14.200;2023-12-07T01:36:39;98162.75;;;3.57
81177;BMP280;74095;48.270;14.200;2023-12-07T01:39:05;98157.34;;;3.47
81177;BMP280;74095;48.270;14.200;2023-12-07T01:41:31;98148.53;;;3.41
81177;BMP280;74095;48.270;14.200;2023-12-07T01:43:57;98158.59;;;3.44
81177;BMP280;74095;48.270;14.200;2023-12-07T01:46:23;98151.38;;;3.40
81177;BMP280;74095;48.270;14.200;2023-12-07T01:48:49;98150.09;;;3.42
81177;BMP280;74095;48.270;14.200;2023-12-07T01:51:16;98153.31;;;3.44
81177;BMP280;74095;48.270;14.200;2023-12-07T01:53:43;98153.31;;;3.44
81177;BMP280;74095;48.270;14.200;2023-12-07T01:56:09;98139.47;;;3.37
81177;BMP280;74095;48.270;14.200;2023-12-07T01:58:36;98145.41;;;3.44
81177;BMP280;74095;48.270;14.200;2023-12-07T02:01:03;98154.41;;;3.48
81177;BMP280;74095;48.270;14.200;2023-12-07T02:03:30;98150.16;;;3.47
81177;BMP280;74095;48.270;14.200;2023-12-07T02:05:57;98165.13;;;3.59
81177;BMP280;74095;48.270;14.200;2023-12-07T02:08:23;98161.81;;;3.63
81177;BMP280;74095;48.270;14.200;2023-12-07T02:10:49;98159.41;;;3.62
81177;BMP280;74095;48.270;14.200;2023-12-07T02:13:15;98160.34;;;3.56
81177;BMP280;74095;48.270;14.200;2023-12-07T02:15:41;98173.31;;;3.57
81177;BMP280;74095;48.270;14.200;2023-12-07T02:18:16;98177.28;;;3.60
81177;BMP280;74095;48.270;14.200;2023-12-07T02:20:47;98184.50;;;3.64
81177;BMP280;74095;48.270;14.200;2023-12-07T02:23:18;98172.50;;;3.57
81177;BMP280;74095;48.270;14.200;2023-12-07T02:26:11;98190.13;;;3.68
81177;BMP280;74095;48.270;14.200;2023-12-07T02:28:39;98192.81;;;3.73
81177;BMP280;74095;48.270;14.200;2023-12-07T02:31:05;98193.31;;;3.70
81177;BMP280;74095;48.270;14.200;2023-12-07T02:33:31;98193.06;;;3.71
81177;BMP280;74095;48.270;14.200;2023-12-07T02:35:57;98195.31;;;3.79
81177;BMP280;74095;48.270;14.200;2023-12-07T02:38:26;98200.81;;;3.78
81177;BMP280;74095;48.270;14.200;2023-12-07T02:40:53;98200.69;;;3.84
81177;BMP280;74095;48.270;14.200;2023-12-07T02:43:20;98211.09;;;3.91
81177;BMP280;74095;48.270;14.200;2023-12-07T02:45:47;98207.88;;;3.89
81177;BMP280;74095;48.270;14.200;2023-12-07T02:48:14;98204.22;;;3.90
81177;BMP280;74095;48.270;14.200;2023-12-07T02:50:40;98214.75;;;3.90
81177;BMP280;74095;48.270;14.200;2023-12-07T02:53:06;98214.75;;;3.90
81177;BMP280;74095;48.270;14.200;2023-12-07T02:55:32;98215.38;;;3.97
81177;BMP280;74095;48.270;14.200;2023-12-07T02:57:57;98224.84;;;3.93
81177;BMP280;74095;48.270;14.200;2023-12-07T03:00:23;98222.59;;;3.85
81177;BMP280;74095;48.270;14.200;2023-12-07T03:02:49;98234.03;;;3.90
81177;BMP280;74095;48.270;14.200;2023-12-07T03:05:16;98222.13;;;3.88
81177;BMP280;74095;48.270;14.200;2023-12-07T03:07:42;98228.09;;;3.83
81177;BMP280;74095;48.270;14.200;2023-12-07T03:10:08;98235.53;;;3.86
81177;BMP280;74095;48.270;14.200;2023-12-07T03:12:34;98235.88;;;3.90
81177;BMP280;74095;48.270;14.200;2023-12-07T03:15:00;98230.50;;;3.85
81177;BMP280;74095;48.270;14.200;2023-12-07T03:17:26;98237.72;;;3.89
81177;BMP280;74095;48.270;14.200;2023-12-07T03:19:52;98227.44;;;3.76
81177;BMP280;74095;48.270;14.200;2023-12-07T03:22:18;98240.50;;;3.83
81177;BMP280;74095;48.270;14.200;2023-12-07T03:24:51;98240.31;;;3.73
81177;BMP280;74095;48.270;14.200;2023-12-07T03:27:18;98245.09;;;3.76
81177;BMP280;74095;48.270;14.200;2023-12-07T03:29:46;98245.59;;;3.73
81177;BMP280;74095;48.270;14.200;2023-12-07T03:32:12;98245.59;;;3.73
81177;BMP280;74095;48.270;14.200;2023-12-07T03:34:38;98250.66;;;3.74
81177;BMP280;74095;48.270;14.200;2023-12-07T03:37:04;98240.81;;;3.70
81177;BMP280;74095;48.270;14.200;2023-12-07T03:39:30;98259.06;;;3.71
81177;BMP280;74095;48.270;14.200;2023-12-07T03:41:58;98251.19;;;3.60
81177;BMP280;74095;48.270;14.200;2023-12-07T03:44:24;98255.19;;;3.62
81177;BMP280;74095;48.270;14.200;2023-12-07T03:46:52;98278.06;;;3.73
81177;BMP280;74095;48.270;14.200;2023-12-07T03:49:18;98260.41;;;3.74
81177;BMP280;74095;48.270;14.200;2023-12-07T03:51:44;98255.06;;;3.69
81177;BMP280;74095;48.270;14.200;2023-12-07T03:54:10;98261.28;;;3.63
81177;BMP280;74095;48.270;14.200;2023-12-07T03:56:36;98264.47;;;3.65
81177;BMP280;74095;48.270;14.200;2023-12-07T03:59:02;98268.47;;;3.67
81177;BMP280;74095;48.270;14.200;2023-12-07T04:01:29;98270.91;;;3.69
81177;BMP280;74095;48.270;14.200;2023-12-07T04:03:56;98272.47;;;3.70
81177;BMP280;74095;48.270;14.200;2023-12-07T04:06:23;98286.78;;;3.74
81177;BMP280;74095;48.270;14.200;2023-12-07T04:08:49;98285.50;;;3.76
81177;BMP280;74095;48.270;14.200;2023-12-07T04:11:16;98273.59;;;3.74
81177;BMP280;74095;48.270;14.200;2023-12-07T04:13:42;98286.88;;;3.79
81177;BMP280;74095;48.270;14.200;2023-12-07T04:16:09;98290.88;;;3.81
81177;BMP280;74095;48.270;14.200;2023-12-07T04:18:35;98290.16;;;3.86
81177;BMP280;74095;48.270;14.200;2023-12-07T04:21:01;98293.28;;;3.83
81177;BMP280;74095;48.270;14.200;2023-12-07T04:23:27;98297.44;;;3.79
81177;BMP280;74095;48.270;14.200;2023-12-07T04:25:53;98300.31;;;3.77
81177;BMP280;74095;48.270;14.200;2023-12-07T04:28:19;98286.72;;;3.69
81177;BMP280;74095;48.270;14.200;2023-12-07T04:30:45;98312.56;;;3.83
81177;BMP280;74095;48.270;14.200;2023-12-07T04:33:10;98301.56;;;3.75
81177;BMP280;74095;48.270;14.200;2023-12-07T04:35:36;98313.16;;;3.85
81177;BMP280;74095;48.270;14.200;2023-12-07T04:38:02;98318.16;;;3.87
81177;BMP280;74095;48.270;14.200;2023-12-07T04:40:28;98309.94;;;3.83
81177;BMP280;74095;48.270;14.200;2023-12-07T04:42:54;98312.63;;;3.72
81177;BMP280;74095;48.270;14.200;2023-12-07T04:45:20;98320.63;;;3.77
81177;BMP280;74095;48.270;14.200;2023-12-07T04:47:46;98327.28;;;3.79
81177;BMP280;74095;48.270;14.200;2023-12-07T04:50:12;98329.13;;;3.79
81177;BMP280;74095;48.270;14.200;2023-12-07T04:52:38;98322.69;;;3.75
81177;BMP280;74095;48.270;14.200;2023-12-07T04:55:05;98325.91;;;3.77
81177;BMP280;74095;48.270;14.200;2023-12-07T04:57:35;98323.19;;;3.72
81177;BMP280;74095;48.270;14.200;2023-12-07T05:00:03;98321.03;;;3.69
81177;BMP280;74095;48.270;14.200;2023-12-07T05:02:35;98334.84;;;3.76
81177;BMP280;74095;48.270;14.200;2023-12-07T05:05:02;98335.88;;;3.75
81177;BMP280;74095;48.270;14.200;2023-12-07T05:07:27;98337.75;;;3.74
81177;BMP280;74095;48.270;14.200;2023-12-07T05:09:53;98341.91;;;3.70
81177;BMP280;74095;48.270;14.200;2023-12-07T05:12:19;98336.94;;;3.74
81177;BMP280;74095;48.270;14.200;2023-12-07T05:14:45;98343.78;;;3.75
81177;BMP280;74095;48.270;14.200;2023-12-07T05:17:11;98342.22;;;3.74
81177;BMP280;74095;48.270;14.200;2023-12-07T05:19:37;98344.06;;;3.73
81177;BMP280;74095;48.270;14.200;2023-12-07T05:22:03;98351.38;;;3.83
81177;BMP280;74095;48.270;14.200;2023-12-07T05:24:29;98358.25;;;3.84
81177;BMP280;74095;48.270;14.200;2023-12-07T05:26:58;98356.06;;;3.81
81177;BMP280;74095;48.270;14.200;2023-12-07T05:29:23;98357.78;;;3.75
81177;BMP280;74095;48.270;14.200;2023-12-07T05:31:49;98358.06;;;3.74
81177;BMP280;74095;48.270;14.200;2023-12-07T05:34:18;98358.06;;;3.74
81177;BMP280;74095;48.270;14.200;2023-12-07T05:36:44;98351.72;;;3.75
81177;BMP280;74095;48.270;14.200;2023-12-07T05:39:12;98357.34;;;3.78
81177;BMP280;74095;48.270;14.200;2023-12-07T05:41:38;98359.50;;;3.81
81177;BMP280;74095;48.270;14.200;2023-12-07T05:44:04;98351.84;;;3.80
81177;BMP280;74095;48.270;14.200;2023-12-07T05:46:31;98358.69;;;3.81
81177;BMP280;74095;48.270;14.200;2023-12-07T05:48:58;98368.00;;;3.83
81177;BMP280;74095;48.270;14.200;2023-12-07T05:51:24;98360.78;;;3.79
81177;BMP280;74095;48.270;14.200;2023-12-07T05:53:50;98347.72;;;3.72
81177;BMP280;74095;48.270;14.200;2023-12-07T05:56:19;98356.06;;;3.81
81177;BMP280;74095;48.270;14.200;2023-12-07T05:58:48;98365.59;;;3.82
81177;BMP280;74095;48.270;14.200;2023-12-07T06:01:17;98369.84;;;3.83
81177;BMP280;74095;48.270;14.200;2023-12-07T06:03:43;98370.75;;;3.77
81177;BMP280;74095;48.270;14.200;2023-12-07T06:06:10;98365.63;;;3.70
81177;BMP280;74095;48.270;14.200;2023-12-07T06:08:40;98377.44;;;3.79
81177;BMP280;74095;48.270;14.200;2023-12-07T06:11:06;98372.97;;;3.80
81177;BMP280;74095;48.270;14.200;2023-12-07T06:13:32;98375.03;;;3.78
81177;BMP280;74095;48.270;14.200;2023-12-07T06:15:59;98375.03;;;3.78
81177;BMP280;74095;48.270;14.200;2023-12-07T06:18:26;98384.16;;;3.87
81177;BMP280;74095;48.270;14.200;2023-12-07T06:20:53;98376.03;;;3.88
81177;BMP280;74095;48.270;14.200;2023-12-07T06:23:18;98376.16;;;3.82
81177;BMP280;74095;48.270;14.200;2023-12-07T06:25:45;98372.97;;;3.80
81177;BMP280;74095;48.270;14.200;2023-12-07T06:28:11;98378.22;;;3.80
81177;BMP280;74095;48.270;14.200;2023-12-07T06:30:38;98393.50;;;3.78
81177;BMP280;74095;48.270;14.200;2023-12-07T06:33:04;98382.94;;;3.78
81177;BMP280;74095;48.270;14.200;2023-12-07T06:35:30;98386.38;;;3.78
81177;BMP280;74095;48.270;14.200;2023-12-07T06:37:56;98391.63;;;3.90
81177;BMP280;74095;48.270;14.200;2023-12-07T06:40:22;98379.78;;;3.92
81177;BMP280;74095;48.270;14.200;2023-12-07T06:42:48;98381.69;;;3.97
81177;BMP280;74095;48.270;14.200;2023-12-07T06:45:14;98405.19;;;4.10
81177;BMP280;74095;48.270;14.200;2023-12-07T06:47:40;98400.84;;;4.04
81177;BMP280;74095;48.270;14.200;2023-12-07T06:50:08;98400.75;;;3.99
81177;BMP280;74095;48.270;14.200;2023-12-07T06:52:36;98409.47;;;4.00
81177;BMP280;74095;48.270;14.200;2023-12-07T06:55:02;98408.09;;;3.97
81177;BMP280;74095;48.270;14.200;2023-12-07T06:57:28;98407.53;;;3.95
81177;BMP280;74095;48.270;14.200;2023-12-07T06:59:54;98409.47;;;4.00
81177;BMP280;74095;48.270;14.200;2023-12-07T07:02:20;98401.72;;;3.93
81177;BMP280;74095;48.270;14.200;2023-12-07T07:04:46;98417.00;;;3.91
81177;BMP280;74095;48.270;14.200;2023-12-07T07:07:17;98417.56;;;3.93
81177;BMP280;74095;48.270;14.200;2023-12-07T07:09:43;98417.44;;;3.88
81177;BMP280;74095;48.270;14.200;2023-12-07T07:12:09;98417.00;;;3.91
81177;BMP280;74095;48.270;14.200;2023-12-07T07:14:35;98414.59;;;3.89
81177;BMP280;74095;48.270;14.200;2023-12-07T07:17:01;98422.09;;;3.98
81177;BMP280;74095;48.270;14.200;2023-12-07T07:19:27;98430.94;;;4.03
81177;BMP280;74095;48.270;14.200;2023-12-07T07:21:52;98427.25;;;4.04
81177;BMP280;74095;48.270;14.200;2023-12-07T07:24:18;98417.19;;;4.01
81177;BMP280;74095;48.270;14.200;2023-12-07T07:26:44;98427.94;;;4.11
81177;BMP280;74095;48.270;14.200;2023-12-07T07:29:10;98428.38;;;4.08
81177;BMP280;74095;48.270;14.200;2023-12-07T07:31:36;98421.44;;;4.02
81177;BMP280;74095;48.270;14.200;2023-12-07T07:34:02;98431.63;;;4.10
81177;BMP280;74095;48.270;14.200;2023-12-07T07:36:28;98438.03;;;4.14
81177;BMP280;74095;48.270;14.200;2023-12-07T07:38:54;98430.66;;;4.16
81177;BMP280;74095;48.270;14.200;2023-12-07T07:41:21;98423.75;;;4.15
81177;BMP280;74095;48.270;14.200;2023-12-07T07:43:47;98429.22;;;4.25
81177;BMP280;74095;48.270;14.200;2023-12-07T07:46:14;98421.78;;;4.22
81177;BMP280;74095;48.270;14.200;2023-12-07T07:48:40;98427.50;;;4.31
81177;BMP280;74095;48.270;14.200;2023-12-07T07:51:06;98420.44;;;4.36
81177;BMP280;74095;48.270;14.200;2023-12-07T07:53:32;98432.38;;;4.39
81177;BMP280;74095;48.270;14.200;2023-12-07T07:55:58;98415.94;;;4.37
81177;BMP280;74095;48.270;14.200;2023-12-07T07:58:23;98414.69;;;4.39
81177;BMP280;74095;48.270;14.200;2023-12-07T08:00:50;98427.41;;;4.43
81177;BMP280;74095;48.270;14.200;2023-12-07T08:03:16;98431.34;;;4.40
81177;BMP280;74095;48.270;14.200;2023-12-07T08:05:42;98422.28;;;4.36
81177;BMP280;74095;48.270;14.200;2023-12-07T08:08:08;98425.72;;;4.36
81177;BMP280;74095;48.270;14.200;2023-12-07T08:10:34;98418.75;;;4.30
81177;BMP280;74095;48.270;14.200;2023-12-07T08:13:00;98417.72;;;4.31
81177;BMP280;74095;48.270;14.200;2023-12-07T08:15:26;98427.50;;;4.31
81177;BMP280;74095;48.270;14.200;2023-12-07T08:17:52;98425.09;;;4.29
81177;BMP280;74095;48.270;14.200;2023-12-07T08:20:18;98421.78;;;4.22
81177;BMP280;74095;48.270;14.200;2023-12-07T08:22:44;98433.13;;;4.34
81177;BMP280;74095;48.270;14.200;2023-12-07T08:25:10;98425.88;;;4.30
81177;BMP280;74095;48.270;14.200;2023-12-07T08:27:37;98427.66;;;4.41
81177;BMP280;74095;48.270;14.200;2023-12-07T08:30:03;98427.78;;;4.46
81177;BMP280;74095;48.270;14.200;2023-12-07T08:32:30;98436.03;;;4.50
81177;BMP280;74095;48.270;14.200;2023-12-07T08:34:56;98432.78;;;4.48
81177;BMP280;74095;48.270;14.200;2023-12-07T08:37:22;98428.31;;;4.48
81177;BMP280;74095;48.270;14.200;2023-12-07T08:39:48;98412.69;;;4.47
81177;BMP280;74095;48.270;14.200;2023-12-07T08:42:14;98426.03;;;4.52
81177;BMP280;74095;48.270;14.200;2023-12-07T08:44:40;98429.75;;;4.56
81177;BMP280;74095;48.270;14.200;2023-12-07T08:47:06;98428.97;;;4.55
81177;BMP280;74095;48.270;14.200;2023-12-07T08:49:32;98434.50;;;4.54
81177;BMP280;74095;48.270;14.200;2023-12-07T08:51:58;98433.81;;;4.47
81177;BMP280;74095;48.270;14.200;2023-12-07T08:54:24;98430.16;;;4.48
81177;BMP280;74095;48.270;14.200;2023-12-07T08:56:51;98442.03;;;4.62
81177;BMP280;74095;48.270;14.200;2023-12-07T08:59:17;98432.00;;;4.64
81177;BMP280;74095;48.270;14.200;2023-12-07T09:01:43;98437.56;;;4.62
81177;BMP280;74095;48.270;14.200;2023-12-07T09:04:08;98433.84;;;4.63
81177;BMP280;74095;48.270;14.200;2023-12-07T09:06:36;98436.66;;;4.57
81177;BMP280;74095;48.270;14.200;2023-12-07T09:09:03;98452.59;;;4.62
81177;BMP280;74095;48.270;14.200;2023-12-07T09:11:32;98446.38;;;4.68
81177;BMP280;74095;48.270;14.200;2023-12-07T09:13:58;98432.59;;;4.66
81177;BMP280;74095;48.270;14.200;2023-12-07T09:16:24;98444.28;;;4.70
81177;BMP280;74095;48.270;14.200;2023-12-07T09:18:51;98452.78;;;4.72
81177;BMP280;74095;48.270;14.200;2023-12-07T09:21:17;98455.69;;;4.59
81177;BMP280;74095;48.270;14.200;2023-12-07T09:23:43;98453.94;;;4.48
81177;BMP280;74095;48.270;14.200;2023-12-07T09:26:10;98443.72;;;4.51
81177;BMP280;74095;48.270;14.200;2023-12-07T09:28:36;98450.16;;;4.44
81177;BMP280;74095;48.270;14.200;2023-12-07T09:31:02;98455.09;;;4.52
81177;BMP280;74095;48.270;14.200;2023-12-07T09:33:28;98443.78;;;4.56
81177;BMP280;74095;48.270;14.200;2023-12-07T09:35:54;98446.75;;;4.60
81177;BMP280;74095;48.270;14.200;2023-12-07T09:38:20;98438.22;;;4.58
81177;BMP280;74095;48.270;14.200;2023-12-07T09:40:46;98432.00;;;4.47
81177;BMP280;74095;48.270;14.200;2023-12-07T09:43:12;98443.72;;;4.51
81177;BMP280;74095;48.270;14.200;2023-12-07T09:45:38;98440.81;;;4.53
81177;BMP280;74095;48.270;14.200;2023-12-07T09:48:05;98439.69;;;4.49
81177;BMP280;74095;48.270;14.200;2023-12-07T09:50:31;98433.44;;;4.55
81177;BMP280;74095;48.270;14.200;2023-12-07T09:52:58;98432.41;;;4.56
81177;BMP280;74095;48.270;14.200;2023-12-07T09:55:24;98429.69;;;4.51
81177;BMP280;74095;48.270;14.200;2023-12-07T09:57:53;98419.97;;;4.39
81177;BMP280;74095;48.270;14.200;2023-12-07T10:00:22;98431.31;;;4.52
81177;BMP280;74095;48.270;14.200;2023-12-07T10:02:48;98421.78;;;4.51
81177;BMP280;74095;48.270;14.200;2023-12-07T10:05:15;98423.84;;;4.49
81177;BMP280;74095;48.270;14.200;2023-12-07T10:07:46;98414.94;;;4.55
81177;BMP280;74095;48.270;14.200;2023-12-07T10:10:17;98423.03;;;4.65
81177;BMP280;74095;48.270;14.200;2023-12-07T10:12:48;98422.59;;;4.68
81177;BMP280;74095;48.270;14.200;2023-12-07T10:15:17;98427.06;;;4.67
81177;BMP280;74095;48.270;14.200;2023-12-07T10:17:46;98428.34;;;4.65
81177;BMP280;74095;48.270;14.200;2023-12-07T10:20:15;98411.66;;;4.48
81177;BMP280;74095;48.270;14.200;2023-12-07T10:22:41;98425.50;;;4.55
81177;BMP280;74095;48.270;14.200;2023-12-07T10:25:07;98419.13;;;4.67
81177;BMP280;74095;48.270;14.200;2023-12-07T10:27:34;98417.75;;;4.65
81177;BMP280;74095;48.270;14.200;2023-12-07T10:30:01;98411.94;;;4.63
81177;BMP280;74095;48.270;14.200;2023-12-07T10:32:27;98407.66;;;4.62
81177;BMP280;74095;48.270;14.200;2023-12-07T10:34:53;98417.63;;;4.71
81177;BMP280;74095;48.270;14.200;2023-12-07T10:37:19;98405.13;;;4.67
81177;BMP280;74095;48.270;14.200;2023-12-07T10:39:45;98402.84;;;4.59
81177;BMP280;74095;48.270;14.200;2023-12-07T10:42:12;98413.03;;;4.67
81177;BMP280;74095;48.270;14.200;2023-12-07T10:44:42;98412.00;;;4.68
81177;BMP280;74095;48.270;14.200;2023-12-07T10:47:11;98413.66;;;4.74
81177;BMP280;74095;48.270;14.200;2023-12-07T10:49:40;98405.13;;;4.67
81177;BMP280;74095;48.270;14.200;2023-12-07T10:52:12;98407.91;;;4.77
81177;BMP280;74095;48.270;14.200;2023-12-07T10:54:57;98406.94;;;4.83
81177;BMP280;74095;48.270;14.200;2023-12-07T10:57:30;98411.03;;;4.91
81177;BMP280;74095;48.270;14.200;2023-12-07T11:00:00;98404.31;;;4.83
81177;BMP280;74095;48.270;14.200;2023-12-07T11:02:32;98404.38;;;4.88
81177;BMP280;74095;48.270;14.200;2023-12-07T11:04:59;98405.47;;;4.92
81177;BMP280;74095;48.270;14.200;2023-12-07T11:07:37;98401.41;;;5.01
81177;BMP280;74095;48.270;14.200;2023-12-07T11:10:10;98392.22;;;5.09
81177;BMP280;74095;48.270;14.200;2023-12-07T11:12:53;98392.06;;;5.15
81177;BMP280;74095;48.270;14.200;2023-12-07T11:15:20;98386.84;;;5.20
81177;BMP280;74095;48.270;14.200;2023-12-07T11:17:55;98394.91;;;5.30
81177;BMP280;74095;48.270;14.200;2023-12-07T11:20:42;98392.91;;;5.38
81177;BMP280;74095;48.270;14.200;2023-12-07T11:23:10;98382.72;;;5.29
81177;BMP280;74095;48.270;14.200;2023-12-07T11:25:37;98387.66;;;5.43
81177;BMP280;74095;48.270;14.200;2023-12-07T11:28:04;98386.38;;;5.45
81177;BMP280;74095;48.270;14.200;2023-12-07T11:30:32;98385.06;;;5.48
81177;BMP280;74095;48.270;14.200;2023-12-07T11:33:00;98381.84;;;5.46
81177;BMP280;74095;48.270;14.200;2023-12-07T11:35:26;98376.72;;;5.56
81177;BMP280;74095;48.270;14.200;2023-12-07T11:38:01;98393.25;;;5.68
81177;BMP280;74095;48.270;14.200;2023-12-07T11:40:30;98391.75;;;5.77
81177;BMP280;74095;48.270;14.200;2023-12-07T11:42:56;98384.19;;;5.86
81177;BMP280;74095;48.270;14.200;2023-12-07T11:45:43;98382.94;;;5.93
81177;BMP280;74095;48.270;14.200;2023-12-07T11:48:14;98387.81;;;6.06
81177;BMP280;74095;48.270;14.200;2023-12-07T11:51:03;98379.47;;;6.19
81177;BMP280;74095;48.270;14.200;2023-12-07T11:53:31;98370.53;;;6.25
81177;BMP280;74095;48.270;14.200;2023-12-07T11:55:58;98358.94;;;6.37
81177;BMP280;74095;48.270;14.200;2023-12-07T11:58:28;98371.84;;;6.60
81177;BMP280;74095;48.270;14.200;2023-12-07T12:00:55;98369.56;;;6.79
81177;BMP280;74095;48.270;14.200;2023-12-07T12:03:23;98363.53;;;6.88
81177;BMP280;74095;48.270;14.200;2023-12-07T12:05:49;98355.88;;;6.97
81177;BMP280;74095;48.270;14.200;2023-12-07T12:08:18;98371.63;;;7.13
81177;BMP280;74095;48.270;14.200;2023-12-07T12:10:45;98370.84;;;7.23
81177;BMP280;74095;48.270;14.200;2023-12-07T12:13:11;98353.59;;;7.15
81177;BMP280;74095;48.270;14.200;2023-12-07T12:15:41;98357.31;;;7.14
81177;BMP280;74095;48.270;14.200;2023-12-07T12:18:08;98367.13;;;7.14
81177;BMP280;74095;48.270;14.200;2023-12-07T12:20:34;98352.47;;;7.06
81177;BMP280;74095;48.270;14.200;2023-12-07T12:23:00;98360.41;;;7.06
81177;BMP280;74095;48.270;14.200;2023-12-07T12:25:28;98360.38;;;6.96
81177;BMP280;74095;48.270;14.200;2023-12-07T12:28:02;98363.53;;;6.88
81177;BMP280;74095;48.270;14.200;2023-12-07T12:30:29;98357.41;;;6.83
81177;BMP280;74095;48.270;14.200;2023-12-07T12:32:56;98360.56;;;6.80
81177;BMP280;74095;48.270;14.200;2023-12-07T12:35:22;98363.75;;;6.77
81177;BMP280;74095;48.270;14.200;2023-12-07T12:37:49;98358.06;;;6.63
81177;BMP280;74095;48.270;14.200;2023-12-07T12:40:17;98360.22;;;6.66
81177;BMP280;74095;48.270;14.200;2023-12-07T12:42:47;98365.03;;;6.74
81177;BMP280;74095;48.270;14.200;2023-12-07T12:45:18;98361.09;;;6.82
81177;BMP280;74095;48.270;14.200;2023-12-07T12:47:44;98356.59;;;6.77
81177;BMP280;74095;48.270;14.200;2023-12-07T12:50:37;98361.38;;;6.80
81177;BMP280;74095;48.270;14.200;2023-12-07T12:53:04;98356.28;;;6.73
81177;BMP280;74095;48.270;14.200;2023-12-07T12:55:32;98364.84;;;6.86
81177;BMP280;74095;48.270;14.200;2023-12-07T12:57:58;98347.06;;;6.86
81177;BMP280;74095;48.270;14.200;2023-12-07T13:00:24;98355.06;;;6.96
81177;BMP280;74095;48.270;14.200;2023-12-07T13:02:50;98361.97;;;6.97
81177;BMP280;74095;48.270;14.200;2023-12-07T13:05:16;98347.34;;;6.95
81177;BMP280;74095;48.270;14.200;2023-12-07T13:07:45;98355.66;;;7.03
81177;BMP280;74095;48.270;14.200;2023-12-07T13:10:15;98362.03;;;7.07
81177;BMP280;74095;48.270;14.200;2023-12-07T13:12:41;98360.97;;;7.03
81177;BMP280;74095;48.270;14.200;2023-12-07T13:15:08;98364.16;;;7.05
81177;BMP280;74095;48.270;14.200;2023-12-07T13:17:34;98360.13;;;6.93
81177;BMP280;74095;48.270;14.200;2023-12-07T13:20:00;98358.78;;;6.95
81177;BMP280;74095;48.270;14.200;2023-12-07T13:22:26;98364.13;;;7.00
81177;BMP280;74095;48.270;14.200;2023-12-07T13:24:52;98360.97;;;7.03
81177;BMP280;74095;48.270;14.200;2023-12-07T13:27:18;98361.53;;;7.10
81177;BMP280;74095;48.270;14.200;2023-12-07T13:29:44;98354.88;;;7.03
81177;BMP280;74095;48.270;14.200;2023-12-07T13:32:10;98344.50;;;7.01
81177;BMP280;74095;48.270;14.200;2023-12-07T13:34:36;98342.84;;;6.95
81177;BMP280;74095;48.270;14.200;2023-12-07T13:37:02;98357.25;;;6.99
81177;BMP280;74095;48.270;14.200;2023-12-07T13:39:27;98354.50;;;6.94
81177;BMP280;74095;48.270;14.200;2023-12-07T13:41:55;98335.38;;;6.77
81177;BMP280;74095;48.270;14.200;2023-12-07T13:44:21;98342.00;;;6.85
81177;BMP280;74095;48.270;14.200;2023-12-07T13:46:47;98341.47;;;6.83
81177;BMP280;74095;48.270;14.200;2023-12-07T13:49:13;98339.59;;;6.83
81177;BMP280;74095;48.270;14.200;2023-12-07T13:51:40;98341.75;;;6.86
81177;BMP280;74095;48.270;14.200;2023-12-07T13:54:07;98340.94;;;6.81
81177;BMP280;74095;48.270;14.200;2023-12-07T13:56:36;98326.81;;;6.65
81177;BMP280;74095;48.270;14.200;2023-12-07T13:59:02;98326.50;;;6.61
81177;BMP280;74095;48.270;14.200;2023-12-07T14:01:28;98336.31;;;6.61
81177;BMP280;74095;48.270;14.200;2023-12-07T14:03:54;98329.56;;;6.43
81177;BMP280;74095;48.270;14.200;2023-12-07T14:06:22;98345.75;;;6.47
81177;BMP280;74095;48.270;14.200;2023-12-07T14:08:49;98339.88;;;6.40